Time;durP1;ratioP1;P1;durP2;ratioP2;P2;SDS_P1;SDS_P2;PMS_P1;PMS_P2;Temp;Humidity;BMP_temperature;BMP_pressure;BME280_temperature;BME280_humidity;BME280_pressure;Samples;Min_cycle;Max_cycle;Signal;HPM_P1;HPM_P2
2024/01/19 00:00:26;;;;;;;0.10;0.10;;;1.30;99.90;;;;;;5006316;28;20044;-79
2024/01/19 00:02:52;;;;;;;0.10;0.10;;;1.30;99.90;;;;;;5006813;28;20025;-79
2024/01/19 00:05:19;;;;;;;0.10;0.10;;;1.20;99.90;;;;;;5010129;28;20037;-79
2024/01/19 00:07:45;;;;;;;0.10;0.10;;;1.20;99.90;;;;;;5003581;28;20101;-80
2024/01/19 00:10:11;;;;;;;0.10;0.10;;;1.10;99.90;;;;;;5004550;28;20117;-80
2024/01/19 00:12:37;;;;;;;0.10;0.10;;;1.10;99.90;;;;;;5006486;28;20030;-79
2024/01/19 00:15:07;;;;;;;0.08;0.08;;;1.00;99.90;;;;;;5003181;28;20034;-80
2024/01/19 00:17:32;;;;;;;0.10;0.10;;;0.90;99.90;;;;;;5004438;28;20026;-80
2024/01/19 00:19:58;;;;;;;0.10;0.10;;;0.80;99.90;;;;;;5003595;28;20058;-80
2024/01/19 00:22:24;;;;;;;0.10;0.10;;;0.80;99.90;;;;;;4994638;28;20687;-80
2024/01/19 00:24:49;;;;;;;0.10;0.10;;;0.90;99.90;;;;;;5005304;28;20485;-81
2024/01/19 00:27:15;;;;;;;0.10;0.10;;;0.80;99.90;;;;;;5004068;28;20029;-80
2024/01/19 00:29:41;;;;;;;0.10;0.10;;;0.80;99.90;;;;;;5006424;28;20041;-80
2024/01/19 00:32:07;;;;;;;0.10;0.10;;;0.70;99.90;;;;;;5004298;28;20064;-80
2024/01/19 00:34:32;;;;;;;0.20;0.20;;;0.70;99.90;;;;;;5007038;28;20141;-79
2024/01/19 00:36:58;;;;;;;0.10;0.10;;;0.70;99.90;;;;;;4999801;28;20053;-79
2024/01/19 00:39:24;;;;;;;0.10;0.10;;;0.80;99.90;;;;;;5003831;28;20034;-79
2024/01/19 00:41:50;;;;;;;0.10;0.10;;;0.60;99.90;;;;;;4999295;28;20045;-79
2024/01/19 00:44:15;;;;;;;0.10;0.10;;;0.60;99.90;;;;;;5008007;28;20460;-78
2024/01/19 00:46:41;;;;;;;0.10;0.10;;;0.60;99.90;;;;;;5004814;28;20026;-79
2024/01/19 00:49:06;;;;;;;0.10;0.10;;;0.50;99.90;;;;;;5007676;28;20033;-78
2024/01/19 00:51:32;;;;;;;0.10;0.10;;;0.50;99.90;;;;;;5001612;28;20030;-78
2024/01/19 00:53:58;;;;;;;0.55;0.55;;;0.50;99.90;;;;;;5003761;28;20037;-78
2024/01/19 00:56:23;;;;;;;0.10;0.10;;;0.40;99.90;;;;;;5005460;28;20030;-78
2024/01/19 00:58:49;;;;;;;0.10;0.10;;;0.30;99.90;;;;;;5004280;28;20030;-78
2024/01/19 01:01:15;;;;;;;0.10;0.10;;;0.30;99.90;;;;;;5001004;28;20128;-78
2024/01/19 01:03:41;;;;;;;0.10;0.10;;;0.30;99.90;;;;;;5001490;28;20034;-78
2024/01/19 01:06:06;;;;;;;0.10;0.10;;;0.20;99.90;;;;;;5001685;28;20030;-78
2024/01/19 01:08:35;;;;;;;0.10;0.10;;;0.20;99.90;;;;;;5002735;28;20076;-78
2024/01/19 01:11:03;;;;;;;0.10;0.10;;;0.30;99.90;;;;;;5004872;28;20037;-79
2024/01/19 01:13:29;;;;;;;0.00;0.00;;;0.20;99.90;;;;;;5003472;28;20033;-80
2024/01/19 01:15:55;;;;;;;0.10;0.10;;;0.20;99.90;;;;;;5002696;28;20034;-80
2024/01/19 01:18:20;;;;;;;0.93;0.80;;;0.20;99.90;;;;;;5006127;28;20022;-80
2024/01/19 01:20:46;;;;;;;0.10;0.10;;;0.10;99.90;;;;;;5002383;28;20056;-79
2024/01/19 01:23:12;;;;;;;0.10;0.10;;;0.20;99.90;;;;;;5002715;28;20441;-80
2024/01/19 01:25:38;;;;;;;0.10;0.10;;;0.10;99.90;;;;;;4997593;28;20804;-80
2024/01/19 01:28:03;;;;;;;0.10;0.10;;;0.10;99.90;;;;;;4996880;28;20029;-79
2024/01/19 01:30:29;;;;;;;0.20;0.20;;;0.10;99.90;;;;;;5003173;28;20038;-80
2024/01/19 01:32:55;;;;;;;0.13;0.13;;;0.10;99.90;;;;;;5004305;28;20031;-81
2024/01/19 01:35:20;;;;;;;0.10;0.10;;;0.00;99.90;;;;;;4999675;28;20026;-80
2024/01/19 01:37:46;;;;;;;0.00;0.00;;;0.00;99.90;;;;;;5000149;28;20944;-79
2024/01/19 01:40:12;;;;;;;0.55;0.55;;;0.00;99.90;;;;;;5001862;28;20060;-79
2024/01/19 01:42:38;;;;;;;0.20;0.20;;;-0.10;99.90;;;;;;5002371;28;20096;-81
2024/01/19 01:45:04;;;;;;;0.20;0.20;;;-0.10;99.90;;;;;;4999197;28;20022;-80
2024/01/19 01:47:30;;;;;;;0.10;0.10;;;-0.10;99.90;;;;;;5003131;28;20062;-80
2024/01/19 01:49:56;;;;;;;0.10;0.10;;;-0.10;99.90;;;;;;5003967;28;20058;-82
2024/01/19 01:52:22;;;;;;;0.25;0.25;;;-0.10;99.90;;;;;;5001299;28;20041;-81
2024/01/19 01:54:48;;;;;;;0.10;0.10;;;-0.10;99.90;;;;;;4984779;28;20401;-80
2024/01/19 01:57:14;;;;;;;0.10;0.10;;;-0.10;99.90;;;;;;5009647;28;20034;-80
2024/01/19 01:59:41;;;;;;;0.10;0.10;;;0.00;99.90;;;;;;5001096;28;20033;-80
2024/01/19 02:02:07;;;;;;;0.10;0.10;;;-0.10;99.90;;;;;;5004204;28;20076;-80
2024/01/19 02:04:34;;;;;;;0.10;0.10;;;-0.20;99.90;;;;;;4999565;28;20029;-80
2024/01/19 02:07:00;;;;;;;;;;;-0.20;99.90;;;;;;5002402;28;20072;-80
2024/01/19 02:09:26;;;;;;;0.10;0.10;;;-0.20;99.90;;;;;;5006315;28;19913;-80
2024/01/19 02:11:52;;;;;;;0.20;0.20;;;-0.20;99.90;;;;;;5007936;28;20072;-80
2024/01/19 02:14:18;;;;;;;0.20;0.20;;;-0.20;99.90;;;;;;5002029;28;20029;-80
2024/01/19 02:16:43;;;;;;;0.10;0.10;;;-0.30;99.90;;;;;;4997400;28;20034;-80
2024/01/19 02:19:09;;;;;;;0.10;0.10;;;-0.30;99.90;;;;;;5001658;28;20491;-80
2024/01/19 02:21:35;;;;;;;0.10;0.10;;;-0.30;99.90;;;;;;5001339;28;20509;-80
2024/01/19 02:24:03;;;;;;;4.07;0.93;;;-0.30;99.90;;;;;;4996059;28;20026;-80
2024/01/19 02:26:31;;;;;;;0.10;0.10;;;-0.30;99.90;;;;;;5004859;28;20087;-81
2024/01/19 02:28:57;;;;;;;0.10;0.10;;;-0.30;99.90;;;;;;4976264;28;20434;-81
2024/01/19 02:31:23;;;;;;;0.10;0.10;;;-0.40;99.90;;;;;;5002380;28;20042;-80
2024/01/19 02:33:48;;;;;;;0.10;0.10;;;-0.40;99.90;;;;;;4993622;28;20100;-81
2024/01/19 02:36:14;;;;;;;0.10;0.10;;;-0.30;99.90;;;;;;5009572;28;20085;-81
2024/01/19 02:38:40;;;;;;;0.10;0.10;;;-0.40;99.90;;;;;;5002872;28;20175;-81
2024/01/19 02:41:05;;;;;;;0.10;0.10;;;-0.40;99.90;;;;;;5002192;28;20048;-81
2024/01/19 02:43:31;;;;;;;0.10;0.10;;;-0.30;99.90;;;;;;5001415;28;20408;-81
2024/01/19 02:45:57;;;;;;;0.10;0.10;;;-0.40;99.90;;;;;;5000066;28;20022;-82
2024/01/19 02:48:23;;;;;;;0.10;0.10;;;-0.40;99.90;;;;;;4994893;28;20038;-81
2024/01/19 02:50:48;;;;;;;0.10;0.10;;;-0.40;99.90;;;;;;5001042;28;20037;-82
2024/01/19 02:53:14;;;;;;;0.10;0.10;;;-0.40;99.90;;;;;;4996316;28;20035;-81
2024/01/19 02:55:40;;;;;;;0.10;0.10;;;-0.40;99.90;;;;;;5002331;28;20025;-82
2024/01/19 02:58:05;;;;;;;0.10;0.10;;;-0.40;99.90;;;;;;5006794;28;20105;-80
2024/01/19 03:00:31;;;;;;;0.30;0.30;;;-0.50;99.90;;;;;;5000461;28;20146;-80
2024/01/19 03:02:57;;;;;;;0.10;0.10;;;-0.40;99.90;;;;;;5001095;28;20032;-81
2024/01/19 03:05:22;;;;;;;0.10;0.10;;;-0.50;99.90;;;;;;5008898;28;20037;-80
2024/01/19 03:07:48;;;;;;;0.10;0.10;;;-0.50;99.90;;;;;;5008410;28;20777;-82
2024/01/19 03:10:14;;;;;;;0.10;0.10;;;-0.50;99.90;;;;;;4984900;28;20030;-81
2024/01/19 03:12:40;;;;;;;0.10;0.10;;;-0.50;99.90;;;;;;5011212;28;20035;-81
2024/01/19 03:15:05;;;;;;;0.10;0.10;;;-0.50;99.90;;;;;;5006657;28;20030;-82
2024/01/19 03:17:33;;;;;;;0.10;0.10;;;-0.50;99.90;;;;;;5014741;28;20780;-82
2024/01/19 03:19:58;;;;;;;;;;;-0.50;99.90;;;;;;5013065;28;20576;-82
2024/01/19 03:22:24;;;;;;;0.10;0.10;;;-0.60;99.90;;;;;;5006522;28;20036;-82
2024/01/19 03:24:50;;;;;;;0.10;0.10;;;-0.60;99.90;;;;;;5007554;28;20133;-83
2024/01/19 03:27:16;;;;;;;3.10;1.13;;;-0.70;99.90;;;;;;5008635;28;20032;-82
2024/01/19 03:29:42;;;;;;;0.10;0.10;;;-0.60;99.90;;;;;;5016230;28;20035;-81
2024/01/19 03:32:07;;;;;;;0.10;0.10;;;-0.60;99.90;;;;;;5010808;28;20026;-82
2024/01/19 03:34:33;;;;;;;0.10;0.10;;;-0.60;99.90;;;;;;5005805;28;20035;-81
2024/01/19 03:37:03;;;;;;;0.10;0.10;;;-0.70;99.90;;;;;;5000222;28;20030;-82
2024/01/19 03:39:32;;;;;;;0.10;0.10;;;-0.70;99.90;;;;;;5009078;28;20893;-83
2024/01/19 03:41:58;;;;;;;0.10;0.10;;;-0.70;99.90;;;;;;5008596;28;20088;-82
2024/01/19 03:44:24;;;;;;;0.37;0.37;;;-0.60;99.90;;;;;;5011345;28;20025;-81
2024/01/19 03:46:53;;;;;;;0.10;0.10;;;-0.70;99.90;;;;;;5008055;28;20033;-80
2024/01/19 03:49:19;;;;;;;0.10;0.10;;;-0.80;99.90;;;;;;5006546;28;20026;-83
2024/01/19 03:51:58;;;;;;;0.10;0.10;;;-0.70;99.90;;;;;;5007524;28;20057;-83
2024/01/19 03:54:24;;;;;;;0.10;0.10;;;-0.70;99.90;;;;;;5010543;28;20040;-82
2024/01/19 03:56:49;;;;;;;0.10;0.10;;;-0.70;99.90;;;;;;4988004;28;20030;-82
2024/01/19 03:59:15;;;;;;;0.10;0.10;;;-0.70;99.90;;;;;;5008986;28;20360;-80
2024/01/19 04:01:41;;;;;;;0.98;0.93;;;-0.80;99.90;;;;;;5000932;28;20030;-81
2024/01/19 04:04:06;;;;;;;0.10;0.10;;;-0.70;99.90;;;;;;5006653;28;20033;-81
2024/01/19 04:06:32;;;;;;;0.10;0.10;;;-0.90;99.90;;;;;;5006439;28;20037;-81
2024/01/19 04:08:58;;;;;;;0.10;0.10;;;-0.90;99.90;;;;;;5012830;28;20038;-80
2024/01/19 04:11:24;;;;;;;0.03;0.03;;;-0.90;99.90;;;;;;5010855;28;20041;-80
2024/01/19 04:13:49;;;;;;;0.10;0.10;;;-0.90;99.90;;;;;;5007710;28;20408;-80
2024/01/19 04:16:15;;;;;;;0.10;0.10;;;-0.90;99.90;;;;;;5005883;28;20038;-81
2024/01/19 04:18:41;;;;;;;0.10;0.10;;;-0.90;99.00;;;;;;5004215;28;20044;-82
2024/01/19 04:21:07;;;;;;;0.10;0.10;;;-0.90;99.90;;;;;;5007392;28;20054;-81
2024/01/19 04:23:33;;;;;;;0.10;0.10;;;-1.00;99.90;;;;;;5002845;28;20393;-82
2024/01/19 04:25:58;;;;;;;0.10;0.10;;;-0.90;99.60;;;;;;5004821;28;20273;-82
2024/01/19 04:28:24;;;;;;;0.13;0.13;;;-1.00;99.70;;;;;;5003573;28;20630;-82
2024/01/19 04:30:49;;;;;;;0.10;0.10;;;-1.00;99.90;;;;;;5002259;28;20842;-80
2024/01/19 04:33:15;;;;;;;0.10;0.10;;;-1.10;99.30;;;;;;4997782;28;20030;-82
2024/01/19 04:35:41;;;;;;;0.10;0.10;;;-1.00;99.80;;;;;;4999047;28;20589;-82
2024/01/19 04:38:06;;;;;;;0.10;0.10;;;-1.10;99.30;;;;;;5003098;28;20033;-81
2024/01/19 04:40:32;;;;;;;0.73;0.73;;;-1.00;99.50;;;;;;5005162;28;20488;-80
2024/01/19 04:42:58;;;;;;;0.17;0.17;;;-1.00;98.80;;;;;;5012162;28;20029;-81
2024/01/19 04:45:23;;;;;;;0.20;0.20;;;-1.00;98.40;;;;;;5002739;28;20037;-81
2024/01/19 04:47:49;;;;;;;0.10;0.10;;;-0.90;98.00;;;;;;5010135;28;20034;-81
2024/01/19 04:50:15;;;;;;;0.10;0.10;;;-0.90;98.00;;;;;;5006849;28;20033;-81
2024/01/19 04:52:40;;;;;;;0.10;0.10;;;-0.90;97.20;;;;;;5005028;28;20537;-81
2024/01/19 04:55:06;;;;;;;0.20;0.20;;;-0.90;97.20;;;;;;5009415;28;20442;-81
2024/01/19 04:57:32;;;;;;;0.10;0.10;;;-1.00;97.30;;;;;;4976716;28;20034;-81
2024/01/19 04:59:58;;;;;;;0.10;0.10;;;-0.90;96.90;;;;;;5006586;28;20542;-81
2024/01/19 05:02:24;;;;;;;0.10;0.10;;;-1.00;97.80;;;;;;5005639;28;20041;-80
2024/01/19 05:04:50;;;;;;;0.10;0.10;;;-0.90;97.60;;;;;;5003016;28;20026;-80
2024/01/19 05:07:16;;;;;;;0.10;0.10;;;-1.00;97.70;;;;;;5000157;28;20053;-80
2024/01/19 05:09:41;;;;;;;0.10;0.10;;;-1.00;97.20;;;;;;4996035;28;20088;-80
2024/01/19 05:12:07;;;;;;;0.10;0.10;;;-0.90;97.30;;;;;;5006620;28;20014;-82
2024/01/19 05:14:33;;;;;;;0.10;0.10;;;-1.00;97.10;;;;;;5005649;28;20444;-81
2024/01/19 05:16:58;;;;;;;0.10;0.10;;;-0.90;97.30;;;;;;5002775;28;20041;-81
2024/01/19 05:19:24;;;;;;;0.10;0.10;;;-0.90;96.60;;;;;;5003696;28;20466;-81
2024/01/19 05:21:50;;;;;;;0.10;0.10;;;-0.90;96.60;;;;;;5009253;28;20034;-82
2024/01/19 05:24:15;;;;;;;0.10;0.10;;;-1.00;97.30;;;;;;5000879;28;20121;-82
2024/01/19 05:26:41;;;;;;;0.10;0.10;;;-1.00;97.10;;;;;;5004148;28;20022;-82
2024/01/19 05:29:06;;;;;;;1.80;1.07;;;-0.90;97.20;;;;;;4999490;28;20394;-82
2024/01/19 05:31:32;;;;;;;0.10;0.10;;;-0.90;96.50;;;;;;5008547;28;20865;-81
2024/01/19 05:33:58;;;;;;;0.00;0.00;;;-0.90;97.00;;;;;;5009641;28;20084;-81
2024/01/19 05:36:23;;;;;;;0.10;0.10;;;-0.80;95.70;;;;;;5003772;28;20026;-82
2024/01/19 05:38:49;;;;;;;0.10;0.10;;;-0.90;96.20;;;;;;5009547;28;20033;-82
2024/01/19 05:41:22;;;;;;;0.10;0.10;;;-0.90;96.40;;;;;;5000751;28;20152;-84
2024/01/19 05:43:48;;;;;;;0.10;0.10;;;-0.90;96.60;;;;;;5004727;28;20026;-80
2024/01/19 05:46:14;;;;;;;0.10;0.10;;;-0.80;96.00;;;;;;5003689;28;20085;-81
2024/01/19 05:48:39;;;;;;;0.10;0.10;;;-0.90;95.90;;;;;;5002029;28;20061;-79
2024/01/19 05:51:15;;;;;;;0.10;0.10;;;-0.90;95.70;;;;;;5002147;28;20120;-82
2024/01/19 05:53:41;;;;;;;0.10;0.10;;;-0.90;95.50;;;;;;5010148;28;20028;-81
2024/01/19 05:56:07;;;;;;;0.10;0.10;;;-0.90;96.10;;;;;;5003061;28;20668;-82
2024/01/19 05:58:32;;;;;;;0.10;0.10;;;-1.00;96.60;;;;;;5005187;28;20041;-81
2024/01/19 06:01:00;;;;;;;0.10;0.10;;;-0.90;96.00;;;;;;5003734;28;20045;-81
2024/01/19 06:03:25;;;;;;;0.10;0.10;;;-1.00;95.80;;;;;;4996076;28;20038;-82
2024/01/19 06:05:51;;;;;;;0.10;0.10;;;-0.90;95.30;;;;;;5002455;28;20161;-82
2024/01/19 06:08:17;;;;;;;0.10;0.10;;;-0.90;95.90;;;;;;5005243;28;20049;-81
2024/01/19 06:10:42;;;;;;;0.10;0.10;;;-0.80;95.40;;;;;;5001414;28;20062;-82
2024/01/19 06:13:08;;;;;;;0.10;0.10;;;-0.90;95.70;;;;;;5002563;28;20257;-82
2024/01/19 06:15:35;;;;;;;0.10;0.10;;;-1.00;96.00;;;;;;5002238;28;20030;-81
2024/01/19 06:18:00;;;;;;;0.10;0.10;;;-1.00;96.10;;;;;;5005510;28;20109;-81
2024/01/19 06:20:26;;;;;;;0.03;0.03;;;-1.00;95.30;;;;;;5001419;28;20340;-81
2024/01/19 06:22:52;;;;;;;0.10;0.10;;;-1.00;96.10;;;;;;4999519;28;20034;-81
2024/01/19 06:25:18;;;;;;;0.10;0.10;;;-1.00;96.70;;;;;;5000932;28;20030;-81
2024/01/19 06:27:44;;;;;;;0.08;0.08;;;-1.00;96.40;;;;;;4996137;28;20140;-81
2024/01/19 06:30:11;;;;;;;0.03;0.03;;;-1.10;96.50;;;;;;5009202;28;20807;-81
2024/01/19 06:32:36;;;;;;;0.10;0.10;;;-1.00;96.40;;;;;;4984058;28;20034;-81
2024/01/19 06:35:03;;;;;;;0.10;0.10;;;-1.10;96.70;;;;;;5001638;28;20711;-81
2024/01/19 06:37:28;;;;;;;0.10;0.10;;;-1.00;96.90;;;;;;5002226;28;20045;-83
2024/01/19 06:39:54;;;;;;;0.20;0.20;;;-1.10;96.70;;;;;;5001449;28;20036;-83
2024/01/19 06:42:20;;;;;;;0.10;0.10;;;-1.00;96.60;;;;;;5001925;28;20018;-82
2024/01/19 06:44:46;;;;;;;0.10;0.10;;;-1.10;96.50;;;;;;5001199;28;20849;-80
2024/01/19 06:47:12;;;;;;;0.10;0.10;;;-1.00;96.20;;;;;;4999688;28;20160;-81
2024/01/19 06:49:37;;;;;;;0.10;0.10;;;-1.10;96.70;;;;;;5001155;28;20026;-81
2024/01/19 06:52:06;;;;;;;0.10;0.10;;;-1.20;97.20;;;;;;4996962;28;20022;-81
2024/01/19 06:54:32;;;;;;;0.10;0.10;;;-1.20;97.10;;;;;;5012903;28;20104;-81
2024/01/19 06:56:58;;;;;;;0.10;0.10;;;-1.20;97.50;;;;;;5010830;28;20080;-82
2024/01/19 06:59:25;;;;;;;0.10;0.10;;;-1.30;97.70;;;;;;5004436;28;20097;-81
2024/01/19 07:01:51;;;;;;;0.40;0.40;;;-1.30;97.90;;;;;;5001334;28;20124;-82
2024/01/19 07:04:16;;;;;;;0.10;0.10;;;-1.20;97.40;;;;;;5000791;28;20083;-82
2024/01/19 07:06:42;;;;;;;0.10;0.10;;;-1.20;97.30;;;;;;5008061;28;20395;-82
2024/01/19 07:09:08;;;;;;;0.25;0.25;;;-1.30;97.50;;;;;;5012350;28;20030;-82
2024/01/19 07:11:35;;;;;;;0.10;0.10;;;-1.30;97.50;;;;;;5007870;28;20072;-81
2024/01/19 07:14:01;;;;;;;0.10;0.10;;;-1.40;97.90;;;;;;5005708;28;20036;-80
2024/01/19 07:16:26;;;;;;;0.10;0.10;;;-1.20;97.00;;;;;;5005166;28;20030;-82
2024/01/19 07:18:52;;;;;;;0.20;0.20;;;-1.20;97.00;;;;;;5008250;28;20026;-82
2024/01/19 07:21:18;;;;;;;0.10;0.10;;;-1.20;96.20;;;;;;5001756;28;20485;-82
2024/01/19 07:23:43;;;;;;;0.10;0.10;;;-1.30;97.10;;;;;;5000566;28;20546;-81
2024/01/19 07:26:10;;;;;;;0.10;0.10;;;-1.30;97.10;;;;;;5001162;28;20028;-82
2024/01/19 07:28:36;;;;;;;0.10;0.10;;;-1.30;97.20;;;;;;5000904;28;20030;-80
2024/01/19 07:31:01;;;;;;;0.10;0.10;;;-1.20;96.70;;;;;;5001267;28;20033;-83
2024/01/19 07:33:28;;;;;;;0.10;0.10;;;-1.30;97.40;;;;;;4997605;28;20030;-85
2024/01/19 07:35:54;;;;;;;0.10;0.10;;;-1.30;97.00;;;;;;4995874;28;20065;-84
2024/01/19 07:38:20;;;;;;;0.10;0.10;;;-1.40;97.00;;;;;;5005982;28;20448;-86
2024/01/19 07:40:45;;;;;;;0.08;0.08;;;-1.20;97.00;;;;;;5020303;28;20060;-86
2024/01/19 07:43:11;;;;;;;0.03;0.03;;;-1.20;97.10;;;;;;5018494;28;20051;-84
2024/01/19 07:45:37;;;;;;;0.10;0.10;;;-1.20;96.80;;;;;;5009234;28;20034;-86
2024/01/19 07:48:03;;;;;;;0.10;0.10;;;-1.20;96.70;;;;;;5013544;28;20041;-84
2024/01/19 07:50:28;;;;;;;0.10;0.10;;;-1.20;96.50;;;;;;5002913;28;20077;-85
2024/01/19 07:52:54;;;;;;;0.10;0.10;;;-1.20;96.50;;;;;;5008837;28;20029;-85
2024/01/19 07:55:20;;;;;;;0.10;0.10;;;-1.10;96.80;;;;;;5012356;28;20032;-85
2024/01/19 07:57:46;;;;;;;0.10;0.10;;;-1.10;96.90;;;;;;5018391;28;20026;-85
2024/01/19 08:00:12;;;;;;;0.10;0.10;;;-1.20;97.30;;;;;;5011414;28;20091;-84
2024/01/19 08:02:40;;;;;;;0.10;0.10;;;-1.20;97.40;;;;;;5011244;28;20026;-85
2024/01/19 08:05:06;;;;;;;0.00;0.00;;;-1.10;96.70;;;;;;5005396;28;20026;-86
2024/01/19 08:07:31;;;;;;;0.10;0.10;;;-1.20;97.00;;;;;;5007253;28;20987;-85
2024/01/19 08:09:58;;;;;;;0.10;0.10;;;-1.20;96.90;;;;;;5003459;28;20068;-84
2024/01/19 08:12:23;;;;;;;0.10;0.10;;;-1.20;97.10;;;;;;5014964;28;20038;-84
2024/01/19 08:14:50;;;;;;;0.10;0.10;;;-1.10;97.10;;;;;;5011625;28;20130;-85
2024/01/19 08:17:16;;;;;;;0.10;0.10;;;-1.10;96.90;;;;;;5005497;28;20026;-86
2024/01/19 08:19:42;;;;;;;0.30;0.30;;;-1.10;96.60;;;;;;5017318;28;20143;-84
2024/01/19 08:22:08;;;;;;;0.10;0.10;;;-1.00;96.60;;;;;;5013068;28;20033;-85
2024/01/19 08:24:37;;;;;;;0.10;0.10;;;-1.00;96.80;;;;;;5007003;28;20026;-85
2024/01/19 08:27:03;;;;;;;0.40;0.40;;;-1.00;96.80;;;;;;5004707;28;20013;-85
2024/01/19 08:29:29;;;;;;;0.00;0.00;;;-0.90;96.50;;;;;;5014852;28;20030;-86
2024/01/19 08:31:55;;;;;;;0.10;0.10;;;-0.90;96.40;;;;;;4986936;28;20038;-86
2024/01/19 08:34:21;;;;;;;0.03;0.03;;;-0.80;96.20;;;;;;5002687;28;20036;-85
2024/01/19 08:36:46;;;;;;;0.10;0.10;;;-0.60;95.80;;;;;;5004898;28;20030;-85
2024/01/19 08:39:12;;;;;;;0.10;0.10;;;-0.60;96.00;;;;;;5004705;28;20726;-84
2024/01/19 08:41:44;;;;;;;0.10;0.10;;;-0.50;95.80;;;;;;5004782;28;20088;-86
2024/01/19 08:44:10;;;;;;;0.10;0.10;;;-0.20;95.60;;;;;;5013674;28;20199;-85
2024/01/19 08:46:45;;;;;;;0.10;0.10;;;-0.20;95.10;;;;;;5011857;28;20103;-85
2024/01/19 08:49:12;;;;;;;0.10;0.10;;;-0.30;95.30;;;;;;5010024;28;20784;-86
2024/01/19 08:51:38;;;;;;;0.05;0.05;;;-0.10;95.00;;;;;;4994222;28;20037;-85
2024/01/19 08:54:05;;;;;;;0.10;0.10;;;0.00;94.30;;;;;;5012469;28;20033;-84
2024/01/19 08:56:31;;;;;;;0.10;0.10;;;0.10;94.30;;;;;;4985527;28;20656;-85
2024/01/19 08:58:57;;;;;;;0.10;0.10;;;0.10;94.00;;;;;;5011473;28;20026;-84
2024/01/19 09:01:23;;;;;;;0.10;0.10;;;0.30;94.00;;;;;;4989311;28;20064;-85
2024/01/19 09:03:49;;;;;;;0.10;0.10;;;0.30;93.40;;;;;;5003783;28;20497;-86
2024/01/19 09:06:15;;;;;;;0.10;0.10;;;0.50;93.50;;;;;;4996945;28;20301;-87
2024/01/19 09:08:42;;;;;;;0.08;0.08;;;0.50;93.30;;;;;;5003764;28;20022;-86
2024/01/19 09:11:11;;;;;;;0.10;0.10;;;0.90;93.30;;;;;;4982149;28;20025;-87
2024/01/19 09:13:38;;;;;;;0.10;0.10;;;1.10;91.60;;;;;;5008325;28;20389;-85
2024/01/19 09:16:08;;;;;;;0.10;0.10;;;1.30;92.60;;;;;;5016576;28;20025;-86
2024/01/19 09:18:35;;;;;;;0.10;0.10;;;1.50;92.30;;;;;;5011384;28;20045;-85
2024/01/19 09:21:01;;;;;;;0.10;0.10;;;1.50;91.40;;;;;;5008575;28;20049;-86
2024/01/19 09:23:27;;;;;;;0.10;0.10;;;1.50;91.40;;;;;;5004129;28;20084;-86
2024/01/19 09:25:52;;;;;;;0.10;0.10;;;1.50;91.40;;;;;;5003761;28;20409;-85
2024/01/19 09:28:18;;;;;;;0.10;0.10;;;1.50;90.70;;;;;;5015438;28;20126;-85
2024/01/19 09:30:44;;;;;;;0.10;0.10;;;1.70;90.60;;;;;;5014282;28;20033;-86
2024/01/19 09:33:10;;;;;;;0.45;0.45;;;1.90;91.20;;;;;;5019175;28;20064;-86
2024/01/19 09:35:37;;;;;;;0.70;0.70;;;1.80;90.40;;;;;;5013492;28;20025;-87
2024/01/19 09:38:02;;;;;;;;;;;1.50;89.90;;;;;;5008786;28;20030;-86
2024/01/19 09:40:28;;;;;;;0.13;0.13;;;1.60;91.00;;;;;;5000156;28;19917;-86
2024/01/19 09:42:57;;;;;;;0.10;0.10;;;1.50;90.60;;;;;;5011793;28;20390;-86
2024/01/19 09:45:26;;;;;;;0.40;0.40;;;1.30;90.80;;;;;;5011369;28;20097;-86
2024/01/19 09:48:16;;;;;;;0.10;0.10;;;1.60;90.60;;;;;;5011074;28;20030;-86
2024/01/19 09:50:46;;;;;;;0.10;0.10;;;1.70;90.00;;;;;;4998357;28;20026;-85
2024/01/19 09:53:18;;;;;;;0.10;0.10;;;1.90;89.40;;;;;;5008525;28;20033;-87
2024/01/19 09:55:47;;;;;;;0.10;0.10;;;1.90;89.50;;;;;;5004685;28;20079;-86
2024/01/19 09:58:13;;;;;;;0.10;0.10;;;1.80;89.20;;;;;;4989521;28;20806;-86
2024/01/19 10:00:39;;;;;;;0.10;0.10;;;2.00;88.80;;;;;;5005213;28;20072;-87
2024/01/19 10:03:09;;;;;;;0.20;0.20;;;2.10;89.40;;;;;;5003208;28;20394;-86
2024/01/19 10:05:36;;;;;;;0.10;0.10;;;2.30;88.70;;;;;;5001374;28;20026;-86
2024/01/19 10:08:04;;;;;;;0.60;0.60;;;2.20;86.50;;;;;;5004159;28;20029;-85
2024/01/19 10:10:29;;;;;;;0.10;0.10;;;2.20;87.80;;;;;;5007506;28;20444;-86
2024/01/19 10:12:55;;;;;;;0.10;0.10;;;2.00;86.40;;;;;;5005415;28;20026;-86
2024/01/19 10:15:22;;;;;;;0.10;0.10;;;2.00;86.80;;;;;;5002333;28;20022;-86
2024/01/19 10:17:48;;;;;;;0.30;0.30;;;2.00;86.60;;;;;;5003281;28;20442;-85
2024/01/19 10:20:16;;;;;;;0.10;0.10;;;2.00;87.90;;;;;;5014352;28;20136;-84
2024/01/19 10:22:42;;;;;;;0.10;0.10;;;2.10;85.90;;;;;;5002475;28;20036;-86
2024/01/19 10:25:13;;;;;;;0.10;0.10;;;1.90;86.60;;;;;;5009835;28;20068;-86
2024/01/19 10:27:47;;;;;;;0.08;0.08;;;1.80;84.30;;;;;;4989805;28;20121;-85
2024/01/19 10:30:30;;;;;;;0.10;0.10;;;1.80;85.20;;;;;;5012441;28;20032;-86
2024/01/19 10:33:04;;;;;;;0.25;0.25;;;1.80;86.20;;;;;;5017464;28;20021;-85
2024/01/19 10:35:30;;;;;;;0.10;0.10;;;1.60;86.20;;;;;;5011957;28;20083;-86
2024/01/19 10:38:06;;;;;;;0.10;0.10;;;1.60;86.70;;;;;;5008739;28;20026;-87
2024/01/19 10:40:35;;;;;;;0.13;0.13;;;1.50;86.00;;;;;;4999166;28;20490;-86
2024/01/19 10:43:03;;;;;;;0.10;0.10;;;1.30;85.70;;;;;;5002609;28;20107;-86
2024/01/19 10:45:35;;;;;;;0.10;0.10;;;1.30;86.60;;;;;;5002031;28;20038;-85
2024/01/19 10:48:03;;;;;;;0.10;0.10;;;1.30;85.60;;;;;;4994267;28;20557;-86
2024/01/19 10:50:30;;;;;;;0.10;0.10;;;1.50;86.20;;;;;;5011119;28;20034;-85
2024/01/19 10:52:59;;;;;;;0.10;0.10;;;1.40;85.60;;;;;;5009904;28;20037;-84
2024/01/19 10:55:31;;;;;;;0.10;0.10;;;1.60;86.90;;;;;;5009954;28;20026;-85
2024/01/19 10:58:05;;;;;;;0.10;0.10;;;1.80;87.20;;;;;;5002821;28;20120;-84
2024/01/19 11:00:31;;;;;;;0.10;0.10;;;1.90;87.80;;;;;;4979315;28;20132;-85
2024/01/19 11:03:02;;;;;;;0.10;0.10;;;1.80;85.80;;;;;;5002624;28;20768;-85
2024/01/19 11:05:29;;;;;;;0.10;0.10;;;1.90;85.60;;;;;;5003226;28;20555;-85
2024/01/19 11:07:59;;;;;;;0.10;0.10;;;1.90;84.20;;;;;;5007586;28;20117;-84
2024/01/19 11:10:27;;;;;;;0.10;0.10;;;1.90;83.40;;;;;;5003738;28;20038;-84
2024/01/19 11:12:55;;;;;;;0.10;0.10;;;1.80;83.70;;;;;;4984058;28;20037;-84
2024/01/19 11:15:51;;;;;;;0.10;0.10;;;1.90;83.70;;;;;;5007261;28;20022;-84
2024/01/19 11:18:16;;;;;;;0.10;0.10;;;2.10;85.70;;;;;;5007090;28;20014;-85
2024/01/19 11:20:42;;;;;;;0.10;0.10;;;2.20;84.80;;;;;;5020864;28;20056;-84
2024/01/19 11:23:09;;;;;;;0.10;0.10;;;2.10;84.50;;;;;;5014863;28;20026;-84
2024/01/19 11:25:53;;;;;;;0.10;0.10;;;2.10;82.50;;;;;;5002958;28;20036;-84
2024/01/19 11:28:24;;;;;;;0.10;0.10;;;1.90;82.30;;;;;;4969185;28;20041;-84
2024/01/19 11:31:02;;;;;;;0.10;0.10;;;1.90;81.70;;;;;;5012990;28;20045;-85
2024/01/19 11:33:34;;;;;;;0.63;0.32;;;1.80;80.50;;;;;;5019872;28;20029;-83
2024/01/19 11:35:59;;;;;;;0.10;0.10;;;1.90;81.50;;;;;;5005667;28;20133;-85
2024/01/19 11:38:40;;;;;;;0.10;0.10;;;1.80;80.40;;;;;;4998130;28;20029;-85
2024/01/19 11:41:06;;;;;;;0.10;0.10;;;1.90;81.70;;;;;;5016027;28;20064;-84
2024/01/19 11:43:40;;;;;;;0.10;0.10;;;2.10;83.20;;;;;;5020528;28;20756;-83
2024/01/19 11:46:07;;;;;;;0.10;0.10;;;2.10;81.70;;;;;;5019049;28;20028;-85
2024/01/19 11:48:40;;;;;;;;;;;2.20;81.20;;;;;;5020043;28;20021;-84
2024/01/19 11:51:07;;;;;;;0.10;0.10;;;2.20;81.60;;;;;;5009325;28;19909;-84
2024/01/19 11:53:56;;;;;;;0.10;0.10;;;2.10;79.20;;;;;;4997891;28;20029;-84
2024/01/19 11:56:22;;;;;;;0.10;0.10;;;2.10;80.70;;;;;;4984102;28;20042;-84
2024/01/19 11:58:48;;;;;;;0.10;0.10;;;2.00;78.00;;;;;;5005480;28;20025;-85
2024/01/19 12:01:14;;;;;;;0.10;0.10;;;2.10;81.00;;;;;;5004805;28;20489;-84
2024/01/19 12:03:41;;;;;;;0.10;0.10;;;2.00;79.00;;;;;;5005166;28;20349;-84
2024/01/19 12:06:07;;;;;;;;;;;2.00;79.90;;;;;;4999484;28;20022;-84
2024/01/19 12:08:33;;;;;;;0.10;0.10;;;2.10;77.40;;;;;;5011895;28;20583;-84
2024/01/19 12:11:12;;;;;;;0.10;0.10;;;2.00;78.70;;;;;;5017723;28;20070;-84
2024/01/19 12:13:40;;;;;;;0.10;0.10;;;2.00;76.10;;;;;;5011670;28;20025;-84
2024/01/19 12:16:07;;;;;;;1.95;1.85;;;2.20;79.20;;;;;;5022062;28;20029;-85
2024/01/19 12:18:34;;;;;;;0.10;0.10;;;2.10;76.80;;;;;;5011870;28;20099;-84
2024/01/19 12:21:00;;;;;;;0.10;0.10;;;2.20;78.50;;;;;;5022406;28;20053;-84
2024/01/19 12:23:28;;;;;;;0.10;0.10;;;2.10;77.60;;;;;;4999511;28;20036;-84
2024/01/19 12:25:58;;;;;;;0.10;0.10;;;2.30;79.20;;;;;;5001303;28;20022;-84
2024/01/19 12:28:25;;;;;;;0.00;0.00;;;2.40;78.00;;;;;;5001560;28;20028;-84
2024/01/19 12:30:55;;;;;;;0.10;0.10;;;2.40;78.40;;;;;;5020030;28;20041;-84
2024/01/19 12:33:25;;;;;;;0.10;0.10;;;2.30;79.40;;;;;;4993373;28;20104;-85
2024/01/19 12:36:10;;;;;;;0.10;0.10;;;2.30;78.20;;;;;;5004992;28;20033;-84
2024/01/19 12:38:37;;;;;;;0.10;0.10;;;2.40;77.50;;;;;;4994755;28;20018;-85
2024/01/19 12:41:03;;;;;;;0.10;0.10;;;2.30;77.00;;;;;;5003560;28;20037;-84
2024/01/19 12:43:33;;;;;;;0.98;0.98;;;2.40;78.30;;;;;;5020210;28;20056;-84
2024/01/19 12:46:12;;;;;;;0.10;0.10;;;2.40;77.80;;;;;;5016739;28;20033;-84
2024/01/19 12:48:38;;;;;;;0.40;0.40;;;2.50;78.60;;;;;;5017571;28;20025;-84
2024/01/19 12:51:07;;;;;;;0.10;0.10;;;2.40;76.50;;;;;;5008698;28;20030;-84